sensor_id;sensor_type;location;lat;lon;timestamp;P1;durP1;ratioP1;P2;durP2;ratioP2
45762;SDS011;37512;52.408;13.356;2023-11-18T00:02:19;9.00;;;6.22;;
45762;SDS011;37512;52.408;13.356;2023-11-18T00:06:23;6.40;;;3.58;;
45762;SDS011;37512;52.408;13.356;2023-11-18T00:10:25;8.95;;;6.40;;
45762;SDS011;37512;52.408;13.356;2023-11-18T00:14:28;9.55;;;5.63;;
45762;SDS011;37512;52.408;13.356;2023-11-18T00:18:29;7.75;;;5.32;;
45762;SDS011;37512;52.408;13.356;2023-11-18T00:22:33;12.85;;;6.50;;
45762;SDS011;37512;52.408;13.356;2023-11-18T00:26:36;8.75;;;5.88;;
45762;SDS011;37512;52.408;13.356;2023-11-18T00:30:39;10.02;;;6.65;;
45762;SDS011;37512;52.408;13.356;2023-11-18T00:34:42;9.55;;;6.13;;
45762;SDS011;37512;52.408;13.356;2023-11-18T00:38:45;11.30;;;7.15;;
45762;SDS011;37512;52.408;13.356;2023-11-18T00:42:48;11.05;;;7.55;;
45762;SDS011;37512;52.408;13.356;2023-11-18T00:46:50;12.95;;;7.05;;
45762;SDS011;37512;52.408;13.356;2023-11-18T00:50:51;11.38;;;7.18;;
45762;SDS011;37512;52.408;13.356;2023-11-18T00:54:54;7.85;;;5.55;;
45762;SDS011;37512;52.408;13.356;2023-11-18T00:58:56;8.93;;;5.85;;
45762;SDS011;37512;52.408;13.356;2023-11-18T01:02:57;8.90;;;5.28;;
45762;SDS011;37512;52.408;13.356;2023-11-18T01:07:01;7.88;;;5.68;;
45762;SDS011;37512;52.408;13.356;2023-11-18T01:11:04;8.63;;;5.72;;
45762;SDS011;37512;52.408;13.356;2023-11-18T01:15:09;8.10;;;5.70;;
45762;SDS011;37512;52.408;13.356;2023-11-18T01:19:11;9.43;;;6.82;;
45762;SDS011;37512;52.408;13.356;2023-11-18T01:23:14;11.35;;;7.15;;
45762;SDS011;37512;52.408;13.356;2023-11-18T01:27:19;8.90;;;5.60;;
45762;SDS011;37512;52.408;13.356;2023-11-18T01:31:22;9.25;;;5.90;;
45762;SDS011;37512;52.408;13.356;2023-11-18T01:35:26;12.98;;;6.60;;
45762;SDS011;37512;52.408;13.356;2023-11-18T01:39:28;8.63;;;5.43;;
45762;SDS011;37512;52.408;13.356;2023-11-18T01:43:30;8.98;;;5.82;;
45762;SDS011;37512;52.408;13.356;2023-11-18T01:47:33;10.88;;;6.97;;
45762;SDS011;37512;52.408;13.356;2023-11-18T01:51:36;6.93;;;4.05;;
45762;SDS011;37512;52.408;13.356;2023-11-18T01:55:38;8.98;;;6.28;;
45762;SDS011;37512;52.408;13.356;2023-11-18T01:59:42;8.27;;;5.57;;
45762;SDS011;37512;52.408;13.356;2023-11-18T02:03:46;9.18;;;5.78;;
45762;SDS011;37512;52.408;13.356;2023-11-18T02:07:49;9.80;;;6.57;;
45762;SDS011;37512;52.408;13.356;2023-11-18T02:12:00;9.35;;;5.68;;
45762;SDS011;37512;52.408;13.356;2023-11-18T02:16:14;9.38;;;6.78;;
45762;SDS011;37512;52.408;13.356;2023-11-18T02:20:28;10.52;;;6.72;;
45762;SDS011;37512;52.408;13.356;2023-11-18T02:24:31;10.38;;;6.50;;
45762;SDS011;37512;52.408;13.356;2023-11-18T02:28:38;9.82;;;6.32;;
45762;SDS011;37512;52.408;13.356;2023-11-18T02:32:44;9.02;;;6.07;;
45762;SDS011;37512;52.408;13.356;2023-11-18T02:36:56;10.13;;;6.57;;
45762;SDS011;37512;52.408;13.356;2023-11-18T02:41:03;11.35;;;6.45;;
45762;SDS011;37512;52.408;13.356;2023-11-18T02:45:12;9.88;;;5.95;;
45762;SDS011;37512;52.408;13.356;2023-11-18T02:49:18;8.55;;;6.60;;
45762;SDS011;37512;52.408;13.356;2023-11-18T02:53:20;8.60;;;6.45;;
45762;SDS011;37512;52.408;13.356;2023-11-18T02:57:23;9.77;;;6.15;;
45762;SDS011;37512;52.408;13.356;2023-11-18T03:01:24;10.10;;;6.00;;
45762;SDS011;37512;52.408;13.356;2023-11-18T03:05:27;11.52;;;6.22;;
45762;SDS011;37512;52.408;13.356;2023-11-18T03:09:29;10.95;;;6.35;;
45762;SDS011;37512;52.408;13.356;2023-11-18T03:13:30;10.35;;;6.50;;
45762;SDS011;37512;52.408;13.356;2023-11-18T03:17:33;12.50;;;7.55;;
45762;SDS011;37512;52.408;13.356;2023-11-18T03:21:35;9.52;;;6.82;;
45762;SDS011;37512;52.408;13.356;2023-11-18T03:25:38;10.95;;;6.28;;
45762;SDS011;37512;52.408;13.356;2023-11-18T03:29:40;12.45;;;6.70;;
45762;SDS011;37512;52.408;13.356;2023-11-18T03:33:44;10.15;;;6.45;;
45762;SDS011;37512;52.408;13.356;2023-11-18T03:37:53;13.52;;;6.85;;
45762;SDS011;37512;52.408;13.356;2023-11-18T03:41:56;13.65;;;8.63;;
45762;SDS011;37512;52.408;13.356;2023-11-18T03:46:01;9.57;;;6.50;;
45762;SDS011;37512;52.408;13.356;2023-11-18T03:50:06;10.88;;;6.10;;
45762;SDS011;37512;52.408;13.356;2023-11-18T03:54:11;10.20;;;5.95;;
45762;SDS011;37512;52.408;13.356;2023-11-18T03:58:29;9.02;;;6.10;;
45762;SDS011;37512;52.408;13.356;2023-11-18T04:02:31;9.45;;;6.50;;
45762;SDS011;37512;52.408;13.356;2023-11-18T04:06:33;11.70;;;7.10;;
45762;SDS011;37512;52.408;13.356;2023-11-18T04:10:36;9.63;;;6.40;;
45762;SDS011;37512;52.408;13.356;2023-11-18T04:14:38;10.95;;;7.15;;
45762;SDS011;37512;52.408;13.356;2023-11-18T04:18:40;10.27;;;7.20;;
45762;SDS011;37512;52.408;13.356;2023-11-18T04:22:43;9.65;;;5.93;;
45762;SDS011;37512;52.408;13.356;2023-11-18T04:26:47;10.27;;;6.53;;
45762;SDS011;37512;52.408;13.356;2023-11-18T04:30:52;10.32;;;6.53;;
45762;SDS011;37512;52.408;13.356;2023-11-18T04:34:54;10.82;;;4.88;;
45762;SDS011;37512;52.408;13.356;2023-11-18T04:38:56;5.32;;;3.40;;
45762;SDS011;37512;52.408;13.356;2023-11-18T04:43:00;11.48;;;7.35;;
45762;SDS011;37512;52.408;13.356;2023-11-18T04:47:02;10.65;;;7.00;;
45762;SDS011;37512;52.408;13.356;2023-11-18T04:51:08;17.88;;;7.28;;
45762;SDS011;37512;52.408;13.356;2023-11-18T04:55:09;12.02;;;7.53;;
45762;SDS011;37512;52.408;13.356;2023-11-18T04:59:15;11.80;;;7.70;;
45762;SDS011;37512;52.408;13.356;2023-11-18T05:03:16;15.07;;;9.23;;
45762;SDS011;37512;52.408;13.356;2023-11-18T05:07:18;13.00;;;7.93;;
45762;SDS011;37512;52.408;13.356;2023-11-18T05:11:20;13.20;;;7.80;;
45762;SDS011;37512;52.408;13.356;2023-11-18T05:15:22;15.77;;;8.25;;
45762;SDS011;37512;52.408;13.356;2023-11-18T05:19:26;13.20;;;7.22;;
45762;SDS011;37512;52.408;13.356;2023-11-18T05:23:30;15.45;;;7.72;;
45762;SDS011;37512;52.408;13.356;2023-11-18T05:27:34;13.90;;;8.25;;
45762;SDS011;37512;52.408;13.356;2023-11-18T05:31:37;14.35;;;7.40;;
45762;SDS011;37512;52.408;13.356;2023-11-18T05:35:39;12.63;;;7.00;;
45762;SDS011;37512;52.408;13.356;2023-11-18T05:39:49;10.70;;;7.10;;
45762;SDS011;37512;52.408;13.356;2023-11-18T05:44:00;10.32;;;6.57;;
45762;SDS011;37512;52.408;13.356;2023-11-18T05:48:02;12.07;;;7.47;;
45762;SDS011;37512;52.408;13.356;2023-11-18T05:52:05;7.45;;;4.80;;
45762;SDS011;37512;52.408;13.356;2023-11-18T05:56:07;9.02;;;6.53;;
45762;SDS011;37512;52.408;13.356;2023-11-18T06:00:09;10.02;;;6.13;;
45762;SDS011;37512;52.408;13.356;2023-11-18T06:04:13;10.30;;;6.53;;
45762;SDS011;37512;52.408;13.356;2023-11-18T06:08:16;12.20;;;6.63;;
45762;SDS011;37512;52.408;13.356;2023-11-18T06:12:18;10.57;;;6.88;;
45762;SDS011;37512;52.408;13.356;2023-11-18T06:16:22;10.60;;;6.82;;
45762;SDS011;37512;52.408;13.356;2023-11-18T06:20:28;11.15;;;7.00;;
45762;SDS011;37512;52.408;13.356;2023-11-18T06:24:30;11.60;;;7.00;;
45762;SDS011;37512;52.408;13.356;2023-11-18T06:28:33;12.05;;;6.90;;
45762;SDS011;37512;52.408;13.356;2023-11-18T06:32:38;13.13;;;6.88;;
45762;SDS011;37512;52.408;13.356;2023-11-18T06:36:40;11.07;;;6.90;;
45762;SDS011;37512;52.408;13.356;2023-11-18T06:40:43;16.15;;;6.80;;
45762;SDS011;37512;52.408;13.356;2023-11-18T06:44:45;9.80;;;6.47;;
45762;SDS011;37512;52.408;13.356;2023-11-18T06:48:50;13.13;;;7.50;;
45762;SDS011;37512;52.408;13.356;2023-11-18T06:52:56;13.68;;;7.22;;
45762;SDS011;37512;52.408;13.356;2023-11-18T06:56:59;12.60;;;7.47;;
45762;SDS011;37512;52.408;13.356;2023-11-18T07:01:01;12.00;;;7.70;;
45762;SDS011;37512;52.408;13.356;2023-11-18T07:05:04;13.20;;;7.45;;
45762;SDS011;37512;52.408;13.356;2023-11-18T07:09:07;12.65;;;7.47;;
45762;SDS011;37512;52.408;13.356;2023-11-18T07:13:17;10.30;;;6.57;;
45762;SDS011;37512;52.408;13.356;2023-11-18T07:17:24;11.43;;;6.63;;
45762;SDS011;37512;52.408;13.356;2023-11-18T07:21:26;10.55;;;6.72;;
45762;SDS011;37512;52.408;13.356;2023-11-18T07:25:28;14.70;;;7.03;;
45762;SDS011;37512;52.408;13.356;2023-11-18T07:29:31;12.50;;;7.13;;
45762;SDS011;37512;52.408;13.356;2023-11-18T07:33:33;5.78;;;3.97;;
45762;SDS011;37512;52.408;13.356;2023-11-18T07:37:36;12.13;;;7.15;;
45762;SDS011;37512;52.408;13.356;2023-11-18T07:41:39;13.88;;;8.20;;
45762;SDS011;37512;52.408;13.356;2023-11-18T07:45:41;12.75;;;7.97;;
45762;SDS011;37512;52.408;13.356;2023-11-18T07:49:43;15.18;;;6.88;;
45762;SDS011;37512;52.408;13.356;2023-11-18T07:53:50;9.20;;;6.28;;
45762;SDS011;37512;52.408;13.356;2023-11-18T07:58:06;11.13;;;7.03;;
45762;SDS011;37512;52.408;13.356;2023-11-18T08:02:12;10.63;;;6.15;;
45762;SDS011;37512;52.408;13.356;2023-11-18T08:06:16;11.73;;;6.95;;
45762;SDS011;37512;52.408;13.356;2023-11-18T08:10:23;10.85;;;5.95;;
45762;SDS011;37512;52.408;13.356;2023-11-18T08:14:26;9.95;;;5.13;;
45762;SDS011;37512;52.408;13.356;2023-11-18T08:18:30;8.35;;;5.45;;
45762;SDS011;37512;52.408;13.356;2023-11-18T08:22:33;10.55;;;6.15;;
45762;SDS011;37512;52.408;13.356;2023-11-18T08:26:36;5.82;;;3.67;;
45762;SDS011;37512;52.408;13.356;2023-11-18T08:30:37;12.50;;;7.53;;
45762;SDS011;37512;52.408;13.356;2023-11-18T08:34:40;9.95;;;6.90;;
45762;SDS011;37512;52.408;13.356;2023-11-18T08:38:43;13.25;;;8.18;;
45762;SDS011;37512;52.408;13.356;2023-11-18T08:42:46;11.65;;;6.43;;
45762;SDS011;37512;52.408;13.356;2023-11-18T08:46:52;10.55;;;6.78;;
45762;SDS011;37512;52.408;13.356;2023-11-18T08:50:53;12.13;;;6.97;;
45762;SDS011;37512;52.408;13.356;2023-11-18T08:54:55;12.15;;;6.32;;
45762;SDS011;37512;52.408;13.356;2023-11-18T08:59:35;10.52;;;6.68;;
45762;SDS011;37512;52.408;13.356;2023-11-18T09:03:37;11.77;;;6.15;;
45762;SDS011;37512;52.408;13.356;2023-11-18T09:07:44;11.30;;;6.22;;
45762;SDS011;37512;52.408;13.356;2023-11-18T09:11:49;10.18;;;6.82;;
45762;SDS011;37512;52.408;13.356;2023-11-18T09:15:52;10.27;;;6.15;;
45762;SDS011;37512;52.408;13.356;2023-11-18T09:19:54;10.40;;;5.95;;
45762;SDS011;37512;52.408;13.356;2023-11-18T09:23:57;9.27;;;6.15;;
45762;SDS011;37512;52.408;13.356;2023-11-18T09:28:26;12.57;;;6.53;;
45762;SDS011;37512;52.408;13.356;2023-11-18T09:32:32;9.95;;;5.85;;
45762;SDS011;37512;52.408;13.356;2023-11-18T09:36:36;13.40;;;6.57;;
45762;SDS011;37512;52.408;13.356;2023-11-18T09:40:38;10.48;;;6.32;;
45762;SDS011;37512;52.408;13.356;2023-11-18T09:44:46;14.98;;;7.80;;
45762;SDS011;37512;52.408;13.356;2023-11-18T09:48:53;11.88;;;6.40;;
45762;SDS011;37512;52.408;13.356;2023-11-18T09:53:15;15.52;;;7.60;;
45762;SDS011;37512;52.408;13.356;2023-11-18T09:57:26;14.48;;;7.50;;
45762;SDS011;37512;52.408;13.356;2023-11-18T10:01:35;13.23;;;7.45;;
45762;SDS011;37512;52.408;13.356;2023-11-18T10:05:44;14.75;;;8.60;;
45762;SDS011;37512;52.408;13.356;2023-11-18T10:09:46;14.10;;;7.80;;
45762;SDS011;37512;52.408;13.356;2023-11-18T10:13:50;12.40;;;7.57;;
45762;SDS011;37512;52.408;13.356;2023-11-18T10:17:52;14.00;;;7.82;;
45762;SDS011;37512;52.408;13.356;2023-11-18T10:26:25;8.60;;;5.00;;
45762;SDS011;37512;52.408;13.356;2023-11-18T10:30:27;11.80;;;6.80;;
45762;SDS011;37512;52.408;13.356;2023-11-18T10:34:31;9.13;;;5.55;;
45762;SDS011;37512;52.408;13.356;2023-11-18T10:38:38;11.55;;;6.55;;
45762;SDS011;37512;52.408;13.356;2023-11-18T10:42:48;9.68;;;6.47;;
45762;SDS011;37512;52.408;13.356;2023-11-18T10:46:51;17.13;;;7.50;;
45762;SDS011;37512;52.408;13.356;2023-11-18T10:50:59;18.25;;;6.70;;
45762;SDS011;37512;52.408;13.356;2023-11-18T10:55:02;13.98;;;6.90;;
45762;SDS011;37512;52.408;13.356;2023-11-18T10:59:13;18.25;;;9.15;;
45762;SDS011;37512;52.408;13.356;2023-11-18T11:03:17;20.92;;;11.65;;
45762;SDS011;37512;52.408;13.356;2023-11-18T11:07:19;17.27;;;9.70;;
45762;SDS011;37512;52.408;13.356;2023-11-18T11:11:25;17.27;;;8.70;;
45762;SDS011;37512;52.408;13.356;2023-11-18T11:15:42;19.33;;;9.57;;
45762;SDS011;37512;52.408;13.356;2023-11-18T11:20:04;20.17;;;10.48;;
45762;SDS011;37512;52.408;13.356;2023-11-18T11:24:54;18.95;;;8.80;;
45762;SDS011;37512;52.408;13.356;2023-11-18T11:29:41;20.10;;;9.63;;
45762;SDS011;37512;52.408;13.356;2023-11-18T11:33:43;21.60;;;10.73;;
45762;SDS011;37512;52.408;13.356;2023-11-18T11:37:55;17.85;;;9.18;;
45762;SDS011;37512;52.408;13.356;2023-11-18T11:46:12;18.15;;;8.90;;
45762;SDS011;37512;52.408;13.356;2023-11-18T11:50:22;16.55;;;9.45;;
45762;SDS011;37512;52.408;13.356;2023-11-18T11:54:35;17.08;;;9.63;;
45762;SDS011;37512;52.408;13.356;2023-11-18T11:58:43;15.93;;;8.48;;
45762;SDS011;37512;52.408;13.356;2023-11-18T12:02:48;17.95;;;8.80;;
45762;SDS011;37512;52.408;13.356;2023-11-18T12:06:56;17.73;;;9.90;;
45762;SDS011;37512;52.408;13.356;2023-11-18T12:11:12;20.48;;;10.40;;
45762;SDS011;37512;52.408;13.356;2023-11-18T12:15:17;20.33;;;10.50;;
45762;SDS011;37512;52.408;13.356;2023-11-18T12:20:06;19.52;;;10.95;;
45762;SDS011;37512;52.408;13.356;2023-11-18T12:24:46;22.33;;;10.55;;
45762;SDS011;37512;52.408;13.356;2023-11-18T12:29:29;16.52;;;9.65;;
45762;SDS011;37512;52.408;13.356;2023-11-18T12:42:17;13.43;;;7.97;;
45762;SDS011;37512;52.408;13.356;2023-11-18T12:50:58;15.48;;;8.40;;
45762;SDS011;37512;52.408;13.356;2023-11-18T12:55:01;15.55;;;8.63;;
45762;SDS011;37512;52.408;13.356;2023-11-18T12:59:04;13.35;;;8.65;;
45762;SDS011;37512;52.408;13.356;2023-11-18T13:03:08;15.77;;;8.52;;
45762;SDS011;37512;52.408;13.356;2023-11-18T13:07:15;15.00;;;8.68;;
45762;SDS011;37512;52.408;13.356;2023-11-18T13:11:18;14.10;;;8.50;;
45762;SDS011;37512;52.408;13.356;2023-11-18T13:15:24;16.90;;;9.23;;
45762;SDS011;37512;52.408;13.356;2023-11-18T13:19:26;15.77;;;8.32;;
45762;SDS011;37512;52.408;13.356;2023-11-18T13:23:29;15.70;;;8.73;;
45762;SDS011;37512;52.408;13.356;2023-11-18T13:27:32;14.95;;;7.32;;
45762;SDS011;37512;52.408;13.356;2023-11-18T13:31:34;14.90;;;8.55;;
45762;SDS011;37512;52.408;13.356;2023-11-18T13:35:36;11.68;;;7.13;;
45762;SDS011;37512;52.408;13.356;2023-11-18T13:39:38;13.93;;;7.47;;
45762;SDS011;37512;52.408;13.356;2023-11-18T13:43:43;12.73;;;6.90;;
45762;SDS011;37512;52.408;13.356;2023-11-18T13:47:50;11.68;;;7.07;;
45762;SDS011;37512;52.408;13.356;2023-11-18T13:51:56;11.23;;;6.57;;
45762;SDS011;37512;52.408;13.356;2023-11-18T13:55:57;12.07;;;6.80;;
45762;SDS011;37512;52.408;13.356;2023-11-18T13:59:59;11.80;;;6.18;;
45762;SDS011;37512;52.408;13.356;2023-11-18T14:04:01;13.80;;;6.93;;
45762;SDS011;37512;52.408;13.356;2023-11-18T14:08:06;14.52;;;7.10;;
45762;SDS011;37512;52.408;13.356;2023-11-18T14:12:12;12.48;;;7.35;;
45762;SDS011;37512;52.408;13.356;2023-11-18T14:16:35;11.13;;;6.45;;
45762;SDS011;37512;52.408;13.356;2023-11-18T14:20:37;13.85;;;6.55;;
45762;SDS011;37512;52.408;13.356;2023-11-18T14:24:38;14.98;;;6.47;;
45762;SDS011;37512;52.408;13.356;2023-11-18T14:28:41;11.43;;;6.35;;
45762;SDS011;37512;52.408;13.356;2023-11-18T14:32:45;12.52;;;7.43;;
45762;SDS011;37512;52.408;13.356;2023-11-18T14:36:53;14.82;;;6.93;;
45762;SDS011;37512;52.408;13.356;2023-11-18T14:40:55;12.90;;;7.28;;
45762;SDS011;37512;52.408;13.356;2023-11-18T14:44:58;16.80;;;7.50;;
45762;SDS011;37512;52.408;13.356;2023-11-18T14:49:00;10.77;;;7.18;;
45762;SDS011;37512;52.408;13.356;2023-11-18T14:53:02;12.52;;;7.50;;
45762;SDS011;37512;52.408;13.356;2023-11-18T14:57:06;13.40;;;8.05;;
45762;SDS011;37512;52.408;13.356;2023-11-18T15:01:10;13.90;;;8.15;;
45762;SDS011;37512;52.408;13.356;2023-11-18T15:05:15;14.57;;;8.65;;
45762;SDS011;37512;52.408;13.356;2023-11-18T15:09:19;16.77;;;9.45;;
45762;SDS011;37512;52.408;13.356;2023-11-18T15:13:24;13.55;;;8.25;;
45762;SDS011;37512;52.408;13.356;2023-11-18T15:17:26;13.65;;;8.90;;
45762;SDS011;37512;52.408;13.356;2023-11-18T15:21:46;11.77;;;8.15;;
45762;SDS011;37512;52.408;13.356;2023-11-18T15:25:50;13.70;;;8.75;;
45762;SDS011;37512;52.408;13.356;2023-11-18T15:29:52;12.20;;;8.10;;
45762;SDS011;37512;52.408;13.356;2023-11-18T15:33:54;12.77;;;8.15;;
45762;SDS011;37512;52.408;13.356;2023-11-18T15:37:56;11.95;;;7.47;;
45762;SDS011;37512;52.408;13.356;2023-11-18T15:41:58;17.88;;;9.48;;
45762;SDS011;37512;52.408;13.356;2023-11-18T15:45:59;11.93;;;7.47;;
45762;SDS011;37512;52.408;13.356;2023-11-18T15:50:02;14.00;;;8.43;;
45762;SDS011;37512;52.408;13.356;2023-11-18T15:54:06;16.65;;;9.95;;
45762;SDS011;37512;52.408;13.356;2023-11-18T15:58:07;12.45;;;8.10;;
45762;SDS011;37512;52.408;13.356;2023-11-18T16:02:10;11.98;;;8.05;;
45762;SDS011;37512;52.408;13.356;2023-11-18T16:06:13;12.07;;;7.53;;
45762;SDS011;37512;52.408;13.356;2023-11-18T16:10:15;12.63;;;7.50;;
45762;SDS011;37512;52.408;13.356;2023-11-18T16:14:19;11.57;;;7.22;;
45762;SDS011;37512;52.408;13.356;2023-11-18T16:18:22;11.07;;;7.22;;
45762;SDS011;37512;52.408;13.356;2023-11-18T16:22:25;10.40;;;7.18;;
45762;SDS011;37512;52.408;13.356;2023-11-18T16:26:27;11.27;;;7.80;;
45762;SDS011;37512;52.408;13.356;2023-11-18T16:30:28;13.95;;;8.30;;
45762;SDS011;37512;52.408;13.356;2023-11-18T16:34:32;12.05;;;6.90;;
45762;SDS011;37512;52.408;13.356;2023-11-18T16:38:33;10.32;;;7.38;;
45762;SDS011;37512;52.408;13.356;2023-11-18T16:42:36;17.02;;;7.97;;
45762;SDS011;37512;52.408;13.356;2023-11-18T16:46:38;12.18;;;7.53;;
45762;SDS011;37512;52.408;13.356;2023-11-18T16:50:44;17.50;;;10.65;;
45762;SDS011;37512;52.408;13.356;2023-11-18T16:54:47;13.95;;;7.68;;
45762;SDS011;37512;52.408;13.356;2023-11-18T16:58:56;12.52;;;6.88;;
45762;SDS011;37512;52.408;13.356;2023-11-18T17:02:58;11.35;;;6.88;;
45762;SDS011;37512;52.408;13.356;2023-11-18T17:07:00;11.13;;;6.68;;
45762;SDS011;37512;52.408;13.356;2023-11-18T17:11:02;11.45;;;6.80;;
45762;SDS011;37512;52.408;13.356;2023-11-18T17:15:06;9.13;;;6.72;;
45762;SDS011;37512;52.408;13.356;2023-11-18T17:19:14;12.13;;;7.28;;
45762;SDS011;37512;52.408;13.356;2023-11-18T17:23:16;9.73;;;6.95;;
45762;SDS011;37512;52.408;13.356;2023-11-18T17:27:18;9.27;;;6.38;;
45762;SDS011;37512;52.408;13.356;2023-11-18T17:31:20;9.80;;;6.43;;
45762;SDS011;37512;52.408;13.356;2023-11-18T17:35:22;8.32;;;5.82;;
45762;SDS011;37512;52.408;13.356;2023-11-18T17:39:23;9.98;;;6.43;;
45762;SDS011;37512;52.408;13.356;2023-11-18T17:43:26;9.60;;;6.22;;
45762;SDS011;37512;52.408;13.356;2023-11-18T17:47:28;9.95;;;6.68;;
45762;SDS011;37512;52.408;13.356;2023-11-18T17:51:30;11.82;;;6.75;;
45762;SDS011;37512;52.408;13.356;2023-11-18T17:55:34;10.48;;;6.75;;
45762;SDS011;37512;52.408;13.356;2023-11-18T17:59:36;9.38;;;6.70;;
45762;SDS011;37512;52.408;13.356;2023-11-18T18:03:38;10.63;;;7.18;;
45762;SDS011;37512;52.408;13.356;2023-11-18T18:07:40;11.80;;;7.70;;
45762;SDS011;37512;52.408;13.356;2023-11-18T18:11:42;11.30;;;6.28;;
45762;SDS011;37512;52.408;13.356;2023-11-18T18:15:43;10.93;;;6.95;;
45762;SDS011;37512;52.408;13.356;2023-11-18T18:19:45;10.20;;;6.80;;
45762;SDS011;37512;52.408;13.356;2023-11-18T18:23:47;11.68;;;7.88;;
45762;SDS011;37512;52.408;13.356;2023-11-18T18:27:48;13.30;;;8.25;;
45762;SDS011;37512;52.408;13.356;2023-11-18T18:31:53;13.45;;;7.68;;
45762;SDS011;37512;52.408;13.356;2023-11-18T18:35:55;10.82;;;7.38;;
45762;SDS011;37512;52.408;13.356;2023-11-18T18:39:56;11.20;;;7.53;;
45762;SDS011;37512;52.408;13.356;2023-11-18T18:43:58;13.95;;;7.82;;
45762;SDS011;37512;52.408;13.356;2023-11-18T18:48:00;14.18;;;7.50;;
45762;SDS011;37512;52.408;13.356;2023-11-18T18:52:02;13.52;;;8.50;;
45762;SDS011;37512;52.408;13.356;2023-11-18T18:56:04;14.30;;;8.40;;
45762;SDS011;37512;52.408;13.356;2023-11-18T19:00:07;13.38;;;7.97;;
45762;SDS011;37512;52.408;13.356;2023-11-18T19:04:13;11.65;;;7.40;;
45762;SDS011;37512;52.408;13.356;2023-11-18T19:08:15;12.07;;;8.02;;
45762;SDS011;37512;52.408;13.356;2023-11-18T19:12:17;10.70;;;7.07;;
45762;SDS011;37512;52.408;13.356;2023-11-18T19:16:18;12.98;;;8.07;;
45762;SDS011;37512;52.408;13.356;2023-11-18T19:20:20;16.63;;;9.48;;
45762;SDS011;37512;52.408;13.356;2023-11-18T19:24:22;11.45;;;8.38;;
45762;SDS011;37512;52.408;13.356;2023-11-18T19:28:25;20.25;;;7.65;;
45762;SDS011;37512;52.408;13.356;2023-11-18T19:32:33;11.82;;;7.88;;
45762;SDS011;37512;52.408;13.356;2023-11-18T19:36:34;10.07;;;6.75;;
45762;SDS011;37512;52.408;13.356;2023-11-18T19:40:36;11.40;;;7.43;;
45762;SDS011;37512;52.408;13.356;2023-11-18T19:44:37;11.52;;;8.10;;
45762;SDS011;37512;52.408;13.356;2023-11-18T19:48:39;15.68;;;8.07;;
45762;SDS011;37512;52.408;13.356;2023-11-18T19:52:41;11.15;;;7.95;;
45762;SDS011;37512;52.408;13.356;2023-11-18T19:56:42;12.57;;;7.63;;
45762;SDS011;37512;52.408;13.356;2023-11-18T20:00:44;13.40;;;7.95;;
45762;SDS011;37512;52.408;13.356;2023-11-18T20:04:46;13.48;;;8.00;;
45762;SDS011;37512;52.408;13.356;2023-11-18T20:08:48;10.95;;;7.93;;
45762;SDS011;37512;52.408;13.356;2023-11-18T20:12:49;14.02;;;7.32;;
45762;SDS011;37512;52.408;13.356;2023-11-18T20:16:51;12.60;;;6.80;;
45762;SDS011;37512;52.408;13.356;2023-11-18T20:20:53;14.40;;;7.63;;
45762;SDS011;37512;52.408;13.356;2023-11-18T20:24:57;18.85;;;12.88;;
45762;SDS011;37512;52.408;13.356;2023-11-18T20:28:58;13.18;;;7.13;;
45762;SDS011;37512;52.408;13.356;2023-11-18T20:33:00;11.82;;;7.07;;
45762;SDS011;37512;52.408;13.356;2023-11-18T20:37:02;9.50;;;6.30;;
45762;SDS011;37512;52.408;13.356;2023-11-18T20:41:07;9.48;;;6.32;;
45762;SDS011;37512;52.408;13.356;2023-11-18T20:45:09;8.70;;;5.53;;
45762;SDS011;37512;52.408;13.356;2023-11-18T20:49:15;10.50;;;6.72;;
45762;SDS011;37512;52.408;13.356;2023-11-18T20:53:18;9.32;;;7.07;;
45762;SDS011;37512;52.408;13.356;2023-11-18T20:57:20;9.80;;;6.30;;
45762;SDS011;37512;52.408;13.356;2023-11-18T21:01:22;11.07;;;6.75;;
45762;SDS011;37512;52.408;13.356;2023-11-18T21:05:23;9.20;;;6.20;;
45762;SDS011;37512;52.408;13.356;2023-11-18T21:09:25;9.73;;;5.78;;
45762;SDS011;37512;52.408;13.356;2023-11-18T21:13:27;9.38;;;6.15;;
45762;SDS011;37512;52.408;13.356;2023-11-18T21:17:29;11.00;;;6.53;;
45762;SDS011;37512;52.408;13.356;2023-11-18T21:21:30;13.48;;;6.47;;
45762;SDS011;37512;52.408;13.356;2023-11-18T21:25:32;9.27;;;6.13;;
45762;SDS011;37512;52.408;13.356;2023-11-18T21:29:35;9.65;;;6.80;;
45762;SDS011;37512;52.408;13.356;2023-11-18T21:33:36;12.00;;;8.38;;
45762;SDS011;37512;52.408;13.356;2023-11-18T21:37:38;11.20;;;5.85;;
45762;SDS011;37512;52.408;13.356;2023-11-18T21:41:40;9.13;;;6.40;;
45762;SDS011;37512;52.408;13.356;2023-11-18T21:45:41;8.10;;;5.43;;
45762;SDS011;37512;52.408;13.356;2023-11-18T21:49:44;9.48;;;6.43;;
45762;SDS011;37512;52.408;13.356;2023-11-18T21:53:52;12.30;;;7.50;;
45762;SDS011;37512;52.408;13.356;2023-11-18T21:57:54;11.43;;;7.72;;
45762;SDS011;37512;52.408;13.356;2023-11-18T22:01:55;9.40;;;6.05;;
45762;SDS011;37512;52.408;13.356;2023-11-18T22:05:57;11.73;;;5.72;;
45762;SDS011;37512;52.408;13.356;2023-11-18T22:09:58;12.63;;;6.57;;
45762;SDS011;37512;52.408;13.356;2023-11-18T22:14:00;11.55;;;6.30;;
45762;SDS011;37512;52.408;13.356;2023-11-18T22:18:01;9.55;;;6.35;;
45762;SDS011;37512;52.408;13.356;2023-11-18T22:22:03;10.93;;;6.40;;
45762;SDS011;37512;52.408;13.356;2023-11-18T22:26:05;9.32;;;6.07;;
45762;SDS011;37512;52.408;13.356;2023-11-18T22:30:08;10.77;;;7.22;;
45762;SDS011;37512;52.408;13.356;2023-11-18T22:34:13;10.85;;;6.95;;
45762;SDS011;37512;52.408;13.356;2023-11-18T22:38:15;6.90;;;6.00;;
45762;SDS011;37512;52.408;13.356;2023-11-18T22:42:17;9.75;;;6.88;;
45762;SDS011;37512;52.408;13.356;2023-11-18T22:46:19;11.52;;;7.03;;
45762;SDS011;37512;52.408;13.356;2023-11-18T22:50:21;9.93;;;6.72;;
45762;SDS011;37512;52.408;13.356;2023-11-18T22:54:24;10.38;;;6.57;;
45762;SDS011;37512;52.408;13.356;2023-11-18T22:58:27;10.00;;;7.25;;
45762;SDS011;37512;52.408;13.356;2023-11-18T23:02:29;8.70;;;6.22;;
45762;SDS011;37512;52.408;13.356;2023-11-18T23:06:34;6.82;;;5.28;;
45762;SDS011;37512;52.408;13.356;2023-11-18T23:10:39;9.75;;;6.63;;
45762;SDS011;37512;52.408;13.356;2023-11-18T23:14:41;11.35;;;6.35;;
45762;SDS011;37512;52.408;13.356;2023-11-18T23:18:43;10.00;;;6.28;;
45762;SDS011;37512;52.408;13.356;2023-11-18T23:22:44;11.10;;;7.43;;
45762;SDS011;37512;52.408;13.356;2023-11-18T23:26:46;10.75;;;7.30;;
45762;SDS011;37512;52.408;13.356;2023-11-18T23:30:48;12.18;;;7.30;;
45762;SDS011;37512;52.408;13.356;2023-11-18T23:34:50;8.48;;;6.18;;
45762;SDS011;37512;52.408;13.356;2023-11-18T23:38:52;9.88;;;7.15;;
45762;SDS011;37512;52.408;13.356;2023-11-18T23:43:03;9.23;;;5.90;;
45762;SDS011;37512;52.408;13.356;2023-11-18T23:47:05;12.75;;;7.25;;
45762;SDS011;37512;52.408;13.356;2023-11-18T23:51:07;13.50;;;7.55;;
45762;SDS011;37512;52.408;13.356;2023-11-18T23:55:12;9.25;;;6.00;;
45762;SDS011;37512;52.408;13.356;2023-11-18T23:59:15;10.95;;;7.63;;
